Time;durP1;ratioP1;P1;durP2;ratioP2;P2;SDS_P1;SDS_P2;PMS_P1;PMS_P2;Temp;Humidity;BMP_temperature;BMP_pressure;BME280_temperature;BME280_humidity;BME280_pressure;Samples;Min_cycle;Max_cycle;Signal;HPM_P1;HPM_P2
2022/04/12 00:02:22;;;;;;;19.90;9.80;;;13.10;24.80;;;;;;5111436;28;20247;-74
2022/04/12 00:04:48;;;;;;;14.70;9.07;;;13.10;24.60;;;;;;5111707;28;20416;-73
2022/04/12 00:07:15;;;;;;;16.63;9.50;;;13.10;24.80;;;;;;5111639;28;20190;-74
2022/04/12 00:09:41;;;;;;;27.70;11.53;;;13.00;24.60;;;;;;5111397;28;20247;-74
2022/04/12 00:12:08;;;;;;;16.47;8.63;;;13.00;25.30;;;;;;5111504;28;20444;-75
2022/04/12 00:14:34;;;;;;;13.93;7.73;;;13.20;24.90;;;;;;5093026;28;20625;-75
2022/04/12 00:19:44;;;;;;;14.60;8.50;;;13.60;23.70;;;;;;5106239;28;20189;-75
2022/04/12 00:22:10;;;;;;;13.20;8.13;;;13.80;23.40;;;;;;5111510;28;20447;-74
2022/04/12 00:24:35;;;;;;;13.67;8.10;;;14.00;22.90;;;;;;5111490;28;20675;-75
2022/04/12 00:27:01;;;;;;;14.10;8.43;;;14.30;22.50;;;;;;5111349;28;20175;-73
2022/04/12 00:29:28;;;;;;;14.03;7.60;;;14.40;22.00;;;;;;5110999;28;20203;-75
2022/04/12 00:31:54;;;;;;;18.53;9.07;;;14.10;22.50;;;;;;5111275;28;20204;-74
2022/04/12 00:34:20;;;;;;;15.10;8.27;;;14.00;23.10;;;;;;5111478;28;20425;-73
2022/04/12 00:36:46;;;;;;;11.87;8.17;;;14.10;23.00;;;;;;5103145;28;20422;-74
2022/04/12 00:39:12;;;;;;;16.60;8.77;;;14.10;23.30;;;;;;5111381;28;20512;-74
2022/04/12 00:41:37;;;;;;;13.90;8.40;;;14.10;22.90;;;;;;5110717;28;20494;-74
2022/04/12 00:44:03;;;;;;;19.17;9.37;;;13.90;23.30;;;;;;5111015;28;20187;-75
2022/04/12 00:46:29;;;;;;;16.53;9.77;;;14.10;22.70;;;;;;5111121;28;20195;-74
2022/04/12 00:48:55;;;;;;;20.23;9.27;;;14.30;22.70;;;;;;5111379;28;20411;-74
2022/04/12 00:51:20;;;;;;;15.83;10.10;;;14.30;22.20;;;;;;5111116;28;20271;-74
2022/04/12 00:53:48;;;;;;;23.17;9.30;;;14.20;22.90;;;;;;5110933;28;20172;-74
2022/04/12 00:56:15;;;;;;;16.10;8.90;;;14.20;24.20;;;;;;5110848;28;20420;-73
2022/04/12 00:58:45;;;;;;;18.27;9.27;;;14.10;23.10;;;;;;5111225;28;20458;-74
2022/04/12 01:01:10;;;;;;;17.13;10.13;;;13.90;23.50;;;;;;5110759;28;20442;-74
2022/04/12 01:03:36;;;;;;;14.73;9.03;;;13.90;22.90;;;;;;5111213;28;20499;-73
2022/04/12 01:06:02;;;;;;;15.50;9.20;;;13.70;23.60;;;;;;5110899;28;20181;-75
2022/04/12 01:08:28;;;;;;;14.80;8.40;;;13.80;23.40;;;;;;5092817;28;20543;-74
2022/04/12 01:10:55;;;;;;;19.37;8.90;;;13.80;23.10;;;;;;5110637;28;20468;-72
2022/04/12 01:13:20;;;;;;;15.30;8.80;;;13.80;23.40;;;;;;5104099;28;20502;-73
2022/04/12 01:15:46;;;;;;;14.67;8.80;;;13.60;23.20;;;;;;5114597;28;20452;-75
2022/04/12 01:18:12;;;;;;;28.87;8.57;;;13.60;23.40;;;;;;5114349;28;20424;-74
2022/04/12 01:20:38;;;;;;;15.73;8.50;;;12.10;22.10;;;;;;5115165;28;20261;-74
2022/04/12 01:23:14;;;;;;;18.23;9.40;;;13.60;23.40;;;;;;5114781;28;20569;-74
2022/04/12 01:25:40;;;;;;;17.73;8.50;;;13.60;23.40;;;;;;5107977;28;20423;-74
2022/04/12 01:28:08;;;;;;;16.03;9.40;;;13.30;23.80;;;;;;5113926;28;20467;-74
2022/04/12 01:30:34;;;;;;;18.23;8.87;;;12.90;24.60;;;;;;5106360;28;20537;-74
2022/04/12 01:33:00;;;;;;;16.23;8.43;;;13.00;25.60;;;;;;5112339;28;20486;-74
2022/04/12 01:35:26;;;;;;;12.77;8.23;;;12.80;25.10;;;;;;5109224;28;20417;-74
2022/04/12 01:37:52;;;;;;;12.23;8.27;;;12.80;25.50;;;;;;5114039;28;20545;-74
2022/04/12 01:40:17;;;;;;;15.17;8.90;;;13.00;25.80;;;;;;5114729;28;20182;-74
2022/04/12 01:42:43;;;;;;;13.23;7.47;;;12.90;26.80;;;;;;5113754;28;20455;-73
2022/04/12 01:45:09;;;;;;;14.83;7.50;;;12.70;26.70;;;;;;5112707;28;20269;-74
2022/04/12 01:47:36;;;;;;;12.70;6.83;;;12.50;26.90;;;;;;5113268;28;20174;-73
2022/04/12 01:50:06;;;;;;;14.63;7.40;;;12.20;27.40;;;;;;5114073;28;20462;-73
2022/04/12 01:52:33;;;;;;;14.73;7.47;;;11.80;28.40;;;;;;5113801;28;20446;-72
2022/04/12 01:54:58;;;;;;;11.70;7.80;;;12.10;28.70;;;;;;5105848;28;20420;-73
2022/04/12 01:57:24;;;;;;;11.43;7.47;;;11.10;28.60;;;;;;5114453;28;20484;-74
2022/04/12 01:59:50;;;;;;;14.93;7.87;;;10.70;29.80;;;;;;5113521;28;20178;-74
2022/04/12 02:02:15;;;;;;;12.47;7.97;;;11.00;29.80;;;;;;5113918;28;20267;-75
2022/04/12 02:04:41;;;;;;;12.93;7.87;;;10.90;29.90;;;;;;5114454;28;20261;-74
2022/04/12 02:07:07;;;;;;;13.90;7.67;;;11.20;30.00;;;;;;5114122;28;20588;-74
2022/04/12 02:09:33;;;;;;;13.30;8.23;;;11.50;29.90;;;;;;5113782;28;20200;-73
2022/04/12 02:11:58;;;;;;;14.47;8.60;;;11.20;29.40;;;;;;5113520;28;20534;-75
2022/04/12 02:14:24;;;;;;;12.23;7.57;;;11.00;30.00;;;;;;5114140;28;20169;-74
2022/04/12 02:16:50;;;;;;;14.30;8.53;;;11.00;30.30;;;;;;5113896;28;20629;-74
2022/04/12 02:19:16;;;;;;;12.63;8.77;;;11.00;30.70;;;;;;5113954;28;20934;-75
2022/04/12 02:21:42;;;;;;;13.70;7.63;;;11.00;30.00;;;;;;5113391;28;20431;-74
2022/04/12 02:24:07;;;;;;;19.93;7.40;;;11.10;29.90;;;;;;5113238;28;20971;-75
2022/04/12 02:26:34;;;;;;;11.43;7.20;;;11.20;29.90;;;;;;5114349;28;20177;-75
2022/04/12 02:28:59;;;;;;;12.57;7.75;;;11.20;29.50;;;;;;5113762;28;20181;-74
2022/04/12 02:31:25;;;;;;;14.53;7.40;;;10.90;29.90;;;;;;5114130;28;20212;-75
2022/04/12 02:33:51;;;;;;;15.20;7.20;;;10.70;29.90;;;;;;5113432;28;20535;-73
2022/04/12 02:36:16;;;;;;;16.50;7.30;;;10.60;30.80;;;;;;5113105;28;20181;-74
2022/04/12 02:38:43;;;;;;;15.75;7.75;;;10.60;31.50;;;;;;5113326;28;20219;-75
2022/04/12 02:41:09;;;;;;;16.03;7.47;;;10.50;31.80;;;;;;5113108;28;20679;-74
2022/04/12 02:43:35;;;;;;;13.17;8.07;;;10.40;32.10;;;;;;5112767;28;20177;-73
2022/04/12 02:46:01;;;;;;;10.87;6.90;;;10.70;31.30;;;;;;5113294;28;20176;-75
2022/04/12 02:48:28;;;;;;;14.05;8.45;;;10.90;30.40;;;;;;5094967;28;20184;-73
2022/04/12 02:50:53;;;;;;;14.40;7.80;;;11.00;30.30;;;;;;5113082;28;20253;-73
2022/04/12 02:53:19;;;;;;;14.93;7.80;;;10.80;33.00;;;;;;5113450;28;20176;-74
2022/04/12 02:55:45;;;;;;;14.13;8.30;;;10.80;31.50;;;;;;5113326;28;20178;-73
2022/04/12 02:58:10;;;;;;;16.93;8.27;;;10.80;33.10;;;;;;5112657;28;20733;-74
2022/04/12 03:00:36;;;;;;;13.57;8.07;;;10.70;32.40;;;;;;5113186;28;20557;-74
2022/04/12 03:03:02;;;;;;;14.70;9.70;;;10.70;31.70;;;;;;5112030;28;20197;-74
2022/04/12 03:05:27;;;;;;;15.40;8.03;;;10.60;32.30;;;;;;5094662;28;20182;-74
2022/04/12 03:07:53;;;;;;;16.27;9.50;;;10.80;31.10;;;;;;5112870;28;20636;-75
2022/04/12 03:10:18;;;;;;;13.00;8.23;;;10.70;31.50;;;;;;5112788;28;20202;-75
2022/04/12 03:12:44;;;;;;;14.17;8.73;;;10.90;30.60;;;;;;5112541;28;20203;-75
2022/04/12 03:15:10;;;;;;;13.33;8.37;;;10.80;31.20;;;;;;5112173;28;20216;-75
2022/04/12 03:17:36;;;;;;;15.73;8.93;;;10.50;32.70;;;;;;5112643;28;20170;-75
2022/04/12 03:20:03;;;;;;;15.93;9.27;;;10.60;31.90;;;;;;5112473;28;20189;-75
2022/04/12 03:22:29;;;;;;;16.90;9.07;;;10.60;32.90;;;;;;5112553;28;20447;-75
2022/04/12 03:24:55;;;;;;;15.60;9.13;;;10.70;31.00;;;;;;5112378;28;20179;-75
2022/04/12 03:27:20;;;;;;;19.17;10.02;;;10.30;32.60;;;;;;5112188;28;20640;-74
2022/04/12 03:29:46;;;;;;;19.23;8.63;;;10.40;32.70;;;;;;5093083;28;20215;-74
2022/04/12 03:32:11;;;;;;;13.47;9.20;;;10.40;33.90;;;;;;5111974;28;20312;-73
2022/04/12 03:34:39;;;;;;;17.30;10.00;;;10.20;33.10;;;;;;5112355;28;20174;-74
2022/04/12 03:37:05;;;;;;;14.88;8.60;;;10.20;33.90;;;;;;5107242;28;20206;-74
2022/04/12 03:39:31;;;;;;;18.40;10.67;;;10.30;35.30;;;;;;5112041;28;20219;-74
2022/04/12 03:41:56;;;;;;;19.13;10.20;;;10.40;34.60;;;;;;5111901;28;20427;-74
2022/04/12 03:44:22;;;;;;;21.20;10.60;;;10.40;33.50;;;;;;5112515;28;20415;-73
2022/04/12 03:46:48;;;;;;;12.83;9.40;;;10.40;34.00;;;;;;5112690;28;20170;-74
2022/04/12 03:49:13;;;;;;;19.83;11.40;;;10.40;32.70;;;;;;5111736;28;20556;-74
2022/04/12 03:51:39;;;;;;;21.10;10.40;;;10.40;34.40;;;;;;5112096;28;20190;-74
2022/04/12 03:54:05;;;;;;;28.63;11.57;;;10.40;33.30;;;;;;5111551;28;20797;-73
2022/04/12 03:56:30;;;;;;;17.30;10.40;;;10.40;33.50;;;;;;5112227;28;20172;-74
2022/04/12 03:58:58;;;;;;;21.37;11.80;;;10.30;34.20;;;;;;5111709;28;20178;-74
2022/04/12 04:01:25;;;;;;;18.42;11.45;;;10.10;34.90;;;;;;5111787;28;20556;-74
2022/04/12 04:03:51;;;;;;;20.25;12.23;;;10.00;35.00;;;;;;5111577;28;20256;-74
2022/04/12 04:06:16;;;;;;;23.07;11.77;;;10.00;35.60;;;;;;5111821;28;20206;-74
2022/04/12 04:08:42;;;;;;;18.93;11.37;;;10.20;35.60;;;;;;5111616;28;20175;-75
2022/04/12 04:11:08;;;;;;;18.90;11.20;;;10.10;35.60;;;;;;5110914;28;20213;-75
2022/04/12 04:13:36;;;;;;;18.73;12.53;;;10.20;34.50;;;;;;5111689;28;20166;-74
2022/04/12 04:16:03;;;;;;;19.45;12.38;;;10.20;33.60;;;;;;5111441;28;20208;-75
2022/04/12 04:18:29;;;;;;;20.13;12.25;;;10.30;33.90;;;;;;5111523;28;20209;-74
2022/04/12 04:20:54;;;;;;;18.80;11.40;;;10.10;33.90;;;;;;5111117;28;20799;-75
2022/04/12 04:23:21;;;;;;;27.00;13.17;;;9.90;35.70;;;;;;5111965;28;20181;-74
2022/04/12 04:25:47;;;;;;;19.25;9.45;;;9.70;35.80;;;;;;5111573;28;20166;-75
2022/04/12 04:28:13;;;;;;;18.75;10.50;;;9.20;37.70;;;;;;5111677;28;20518;-75
2022/04/12 04:30:44;;;;;;;20.07;11.13;;;9.30;37.40;;;;;;5111469;28;20297;-75
2022/04/12 04:33:10;;;;;;;22.63;10.05;;;9.30;36.10;;;;;;5111111;28;20209;-74
2022/04/12 04:35:36;;;;;;;24.90;10.60;;;9.50;36.30;;;;;;5111075;28;20223;-74
2022/04/12 04:38:02;;;;;;;20.67;11.10;;;9.50;36.30;;;;;;5111666;28;20167;-75
2022/04/12 04:40:28;;;;;;;21.58;9.23;;;9.60;37.00;;;;;;5111347;28;20508;-75
2022/04/12 04:42:54;;;;;;;19.33;9.90;;;9.40;36.10;;;;;;5110754;28;20322;-75
2022/04/12 04:45:20;;;;;;;24.13;10.63;;;9.10;37.20;;;;;;5111440;28;20186;-74
2022/04/12 04:47:56;;;;;;;19.05;10.20;;;9.20;37.00;;;;;;5111669;28;20181;-74
2022/04/12 04:50:24;;;;;;;18.25;10.70;;;9.10;36.80;;;;;;5115136;28;20655;-75
2022/04/12 04:52:50;;;;;;;24.52;9.90;;;9.20;37.10;;;;;;5114511;28;20554;-76
2022/04/12 04:55:17;;;;;;;23.00;9.57;;;9.10;36.70;;;;;;5115687;28;20166;-75
2022/04/12 04:57:44;;;;;;;18.23;10.50;;;8.90;37.80;;;;;;5115761;28;20417;-74
2022/04/12 05:00:15;;;;;;;20.05;10.27;;;9.00;37.50;;;;;;5115507;28;20190;-75
2022/04/12 05:02:49;;;;;;;24.50;11.00;;;9.10;37.60;;;;;;5096960;28;20671;-75
2022/04/12 05:05:15;;;;;;;22.25;10.48;;;9.30;37.30;;;;;;5114512;28;20190;-75
2022/04/12 05:07:44;;;;;;;20.17;10.68;;;9.30;37.20;;;;;;5097443;28;20182;-76
2022/04/12 05:10:13;;;;;;;24.63;10.65;;;9.30;36.60;;;;;;5115008;28;20239;-75
2022/04/12 05:12:39;;;;;;;20.75;10.85;;;9.20;36.70;;;;;;5114323;28;20562;-75
2022/04/12 05:15:05;;;;;;;18.27;10.70;;;9.20;36.90;;;;;;5115173;28;20265;-74
2022/04/12 05:17:31;;;;;;;28.45;12.13;;;9.30;37.00;;;;;;5097306;28;20655;-75
2022/04/12 05:19:57;;;;;;;16.93;10.53;;;9.50;36.50;;;;;;5115033;28;20197;-74
2022/04/12 05:22:23;;;;;;;40.33;11.07;;;9.50;36.40;;;;;;5096388;28;20202;-74
2022/04/12 05:24:49;;;;;;;32.53;11.68;;;9.60;36.30;;;;;;5114284;28;20265;-75
2022/04/12 05:27:16;;;;;;;23.17;11.10;;;9.60;36.30;;;;;;5115184;28;20261;-75
2022/04/12 05:29:42;;;;;;;24.10;11.55;;;9.70;35.90;;;;;;5114978;28;20455;-75
2022/04/12 05:32:09;;;;;;;21.60;10.38;;;9.80;35.50;;;;;;5114767;28;20223;-75
2022/04/12 05:34:36;;;;;;;27.35;13.10;;;9.90;36.00;;;;;;5096399;28;20177;-73
2022/04/12 05:37:03;;;;;;;36.72;14.43;;;10.00;34.60;;;;;;5114202;28;20178;-75
2022/04/12 05:39:28;;;;;;;34.20;14.43;;;10.00;34.20;;;;;;5114851;28;20189;-75
2022/04/12 05:41:54;;;;;;;36.40;21.10;;;10.20;34.50;;;;;;5106168;28;20217;-75
2022/04/12 05:44:20;;;;;;;77.83;40.30;;;10.20;34.50;;;;;;5096476;28;20589;-76
2022/04/12 05:46:45;;;;;;;59.03;34.80;;;10.40;34.10;;;;;;5114082;28;20706;-75
2022/04/12 05:49:11;;;;;;;57.53;31.50;;;10.20;34.30;;;;;;5114987;28;20249;-74
2022/04/12 05:51:36;;;;;;;57.93;27.43;;;10.20;33.60;;;;;;5114458;28;20197;-75
2022/04/12 05:54:02;;;;;;;44.03;20.93;;;10.20;33.90;;;;;;5114300;28;20179;-74
2022/04/12 05:56:28;;;;;;;41.00;23.80;;;10.20;34.30;;;;;;5114344;28;20170;-76
2022/04/12 05:58:54;;;;;;;44.33;20.73;;;10.60;33.90;;;;;;5113706;28;20177;-75
2022/04/12 06:01:19;;;;;;;32.72;16.92;;;10.30;33.70;;;;;;5113755;28;20196;-75
2022/04/12 06:03:45;;;;;;;28.63;15.50;;;10.10;34.80;;;;;;5114595;28;20178;-76
2022/04/12 06:06:12;;;;;;;23.73;13.30;;;10.20;34.40;;;;;;5114052;28;20187;-76
2022/04/12 06:08:37;;;;;;;24.95;13.40;;;10.00;35.60;;;;;;5114101;28;20172;-75
2022/04/12 06:11:03;;;;;;;25.07;14.13;;;10.10;34.90;;;;;;5113611;28;20277;-75
2022/04/12 06:13:29;;;;;;;54.00;14.47;;;9.90;36.30;;;;;;5114282;28;20254;-75
2022/04/12 06:15:54;;;;;;;21.17;11.60;;;9.90;37.00;;;;;;5113873;28;20189;-75
2022/04/12 06:18:20;;;;;;;22.97;11.50;;;9.80;37.20;;;;;;5094856;28;20640;-74
2022/04/12 06:20:46;;;;;;;26.13;12.17;;;10.20;36.00;;;;;;5113869;28;20177;-76
2022/04/12 06:23:11;;;;;;;19.63;10.90;;;10.30;34.40;;;;;;5113505;28;20798;-75
2022/04/12 06:25:37;;;;;;;20.67;10.60;;;10.20;34.80;;;;;;5105575;28;20182;-76
2022/04/12 06:28:03;;;;;;;17.03;11.70;;;10.50;34.80;;;;;;5113656;28;20265;-76
2022/04/12 06:30:30;;;;;;;21.90;11.60;;;10.10;34.90;;;;;;5113302;28;20213;-76
2022/04/12 06:32:56;;;;;;;24.70;11.73;;;10.20;36.00;;;;;;5113319;28;20537;-76
2022/04/12 06:35:22;;;;;;;19.77;11.30;;;10.30;34.90;;;;;;5113690;28;20894;-75
2022/04/12 06:37:52;;;;;;;22.93;11.50;;;10.70;35.10;;;;;;5113212;28;20430;-75
2022/04/12 06:40:19;;;;;;;18.17;11.10;;;10.80;33.10;;;;;;5113327;28;20457;-76
2022/04/12 06:42:46;;;;;;;23.02;11.52;;;10.60;34.20;;;;;;5113112;28;20953;-76
2022/04/12 06:45:11;;;;;;;22.43;11.63;;;10.60;34.60;;;;;;5113046;28;20186;-77
2022/04/12 06:47:38;;;;;;;22.60;12.30;;;10.80;35.60;;;;;;5113118;28;21002;-76
2022/04/12 06:50:05;;;;;;;20.97;12.10;;;11.10;33.40;;;;;;5112499;28;20202;-76
2022/04/12 06:52:31;;;;;;;28.30;12.70;;;11.20;33.40;;;;;;5113118;28;20491;-72
2022/04/12 06:54:58;;;;;;;21.97;11.80;;;11.40;32.10;;;;;;5112493;28;20416;-73
2022/04/12 06:57:24;;;;;;;25.27;12.27;;;11.50;32.40;;;;;;5113115;28;20423;-74
2022/04/12 06:59:51;;;;;;;17.63;11.50;;;11.90;33.20;;;;;;5113034;28;20791;-74
2022/04/12 07:02:17;;;;;;;20.10;11.50;;;11.70;32.90;;;;;;5112284;28;20209;-72
2022/04/12 07:04:43;;;;;;;21.10;11.80;;;11.40;34.30;;;;;;5113209;28;20423;-74
2022/04/12 07:07:09;;;;;;;21.30;11.90;;;11.80;32.30;;;;;;5113365;28;20419;-74
2022/04/12 07:09:34;;;;;;;20.57;12.40;;;11.70;32.20;;;;;;5112661;28;20178;-73
2022/04/12 07:12:01;;;;;;;20.43;12.40;;;11.40;33.00;;;;;;5111318;28;20200;-73
2022/04/12 07:14:29;;;;;;;24.03;11.90;;;11.40;33.00;;;;;;5112451;28;20435;-73
2022/04/12 07:16:55;;;;;;;21.50;11.57;;;11.40;32.30;;;;;;5112365;28;20424;-74
2022/04/12 07:19:21;;;;;;;18.33;11.43;;;11.40;33.30;;;;;;5112211;28;20455;-73
2022/04/12 07:21:47;;;;;;;29.83;12.60;;;11.70;31.90;;;;;;5112082;28;20475;-71
2022/04/12 07:24:13;;;;;;;20.70;10.70;;;12.00;32.20;;;;;;5111934;28;20177;-72
2022/04/12 07:26:38;;;;;;;19.43;10.70;;;12.00;31.90;;;;;;5109492;28;20500;-76
2022/04/12 07:29:04;;;;;;;17.53;11.40;;;12.30;32.60;;;;;;5113265;27;20674;-77
2022/04/12 07:31:30;;;;;;;15.03;10.90;;;12.10;32.50;;;;;;5114745;28;20215;-77
2022/04/12 07:33:56;;;;;;;19.37;11.20;;;12.60;31.10;;;;;;5111141;28;20186;-76
2022/04/12 07:36:21;;;;;;;16.30;10.60;;;12.60;30.90;;;;;;5113041;28;20179;-77
2022/04/12 07:38:48;;;;;;;18.40;10.70;;;12.10;32.90;;;;;;5113835;28;20186;-77
2022/04/12 07:41:15;;;;;;;16.87;11.20;;;12.60;31.30;;;;;;5114161;28;20422;-77
2022/04/12 07:43:42;;;;;;;16.77;11.47;;;12.70;30.80;;;;;;5114026;28;20437;-76
2022/04/12 07:46:08;;;;;;;20.63;11.57;;;13.00;30.60;;;;;;5098521;28;21000;-76
2022/04/12 07:48:34;;;;;;;23.37;12.40;;;13.10;31.00;;;;;;5106813;28;20577;-77
2022/04/12 07:51:00;;;;;;;22.07;11.13;;;13.80;29.50;;;;;;5108009;28;20605;-77
2022/04/12 07:53:25;;;;;;;17.97;11.63;;;14.30;27.60;;;;;;5112062;28;20172;-77
2022/04/12 07:55:51;;;;;;;17.90;11.70;;;13.90;28.30;;;;;;5111446;28;20274;-76
2022/04/12 07:58:16;;;;;;;18.10;12.00;;;13.30;29.00;;;;;;5110956;28;20245;-76
2022/04/12 08:00:42;;;;;;;22.17;11.77;;;13.10;30.10;;;;;;5112083;28;20176;-78
2022/04/12 08:03:08;;;;;;;20.07;11.03;;;13.50;30.00;;;;;;5111670;28;20203;-78
2022/04/12 08:05:34;;;;;;;28.83;11.30;;;13.60;29.80;;;;;;5112224;28;20173;-77
2022/04/12 08:08:00;;;;;;;17.73;10.70;;;13.40;30.60;;;;;;5112540;28;20177;-78
2022/04/12 08:10:26;;;;;;;20.50;11.10;;;13.50;30.30;;;;;;5099036;28;20455;-78
2022/04/12 08:12:55;;;;;;;15.57;10.73;;;14.00;29.30;;;;;;5126644;28;21061;-79
2022/04/12 08:15:22;;;;;;;19.53;11.10;;;14.60;28.20;;;;;;5119571;28;20165;-76
2022/04/12 08:17:48;;;;;;;19.00;11.70;;;14.40;28.30;;;;;;5116447;28;20408;-77
2022/04/12 08:20:14;;;;;;;21.13;10.03;;;14.50;28.00;;;;;;5116196;28;20430;-77
2022/04/12 08:22:40;;;;;;;18.37;10.70;;;14.00;28.50;;;;;;5115049;28;20195;-77
2022/04/12 08:25:06;;;;;;;22.77;9.97;;;13.70;29.70;;;;;;5114803;28;20427;-77
2022/04/12 08:27:33;;;;;;;19.50;10.67;;;13.70;29.70;;;;;;5113694;28;20428;-81
2022/04/12 08:29:58;;;;;;;13.33;9.43;;;13.60;30.00;;;;;;5116238;28;20496;-78
2022/04/12 08:32:24;;;;;;;17.73;10.23;;;14.00;30.10;;;;;;5115732;28;20453;-79
2022/04/12 08:34:50;;;;;;;17.10;10.10;;;14.00;29.80;;;;;;5117300;28;20223;-78
2022/04/12 08:37:15;;;;;;;13.70;9.70;;;14.40;29.00;;;;;;5116052;28;20702;-79
2022/04/12 08:39:41;;;;;;;15.43;9.70;;;14.20;29.70;;;;;;5113739;28;20258;-78
2022/04/12 08:42:07;;;;;;;15.33;10.37;;;14.20;29.50;;;;;;5115355;28;20236;-78
2022/04/12 08:44:36;;;;;;;14.80;9.27;;;14.40;28.90;;;;;;5113757;28;20202;-77
2022/04/12 08:47:04;;;;;;;13.83;9.30;;;14.50;29.00;;;;;;5113869;28;20199;-78
2022/04/12 08:49:30;;;;;;;14.53;9.20;;;14.80;28.60;;;;;;5113399;28;20504;-77
2022/04/12 08:51:56;;;;;;;17.30;8.67;;;15.10;27.80;;;;;;5114147;28;20871;-80
2022/04/12 08:54:22;;;;;;;18.07;9.90;;;15.50;27.30;;;;;;5108581;28;20424;-78
2022/04/12 08:56:49;;;;;;;16.03;10.77;;;15.50;27.10;;;;;;5117325;28;20184;-77
2022/04/12 08:59:16;;;;;;;24.63;9.80;;;15.90;26.50;;;;;;5115732;28;20415;-78
2022/04/12 09:01:42;;;;;;;24.37;9.50;;;17.00;25.40;;;;;;5093601;28;20589;-77
2022/04/12 09:04:08;;;;;;;17.10;9.70;;;17.20;24.20;;;;;;5114030;28;20416;-78
2022/04/12 09:06:34;;;;;;;21.87;11.23;;;17.20;24.60;;;;;;5109403;28;20421;-78
2022/04/12 09:09:15;;;;;;;22.43;10.80;;;17.50;24.90;;;;;;5121068;28;20428;-76
2022/04/12 09:11:54;;;;;;;16.83;9.30;;;17.80;23.30;;;;;;5117524;28;20503;-78
2022/04/12 09:14:19;;;;;;;22.60;10.23;;;16.90;24.30;;;;;;5111153;28;20467;-78
2022/04/12 09:16:46;;;;;;;26.40;10.30;;;17.20;24.00;;;;;;5116471;28;20425;-79
2022/04/12 09:19:12;;;;;;;22.53;10.43;;;17.60;24.00;;;;;;5131546;28;20193;-78
2022/04/12 09:21:46;;;;;;;21.37;10.43;;;17.70;24.00;;;;;;5131800;28;20449;-79
2022/04/12 09:24:20;;;;;;;22.00;10.17;;;17.60;23.40;;;;;;5132147;28;20419;-78
2022/04/12 09:26:57;;;;;;;18.47;10.60;;;17.40;23.70;;;;;;5122031;28;20449;-79
2022/04/12 09:29:27;;;;;;;23.23;9.93;;;17.50;23.20;;;;;;5116470;28;20479;-78
2022/04/12 09:31:56;;;;;;;20.60;9.57;;;18.50;22.60;;;;;;5114962;28;20566;-79
2022/04/12 09:34:23;;;;;;;27.30;10.00;;;18.70;21.90;;;;;;5116050;28;20422;-77
2022/04/12 09:36:49;;;;;;;12.67;9.30;;;18.70;22.30;;;;;;5119725;28;20987;-78
2022/04/12 09:39:19;;;;;;;16.00;9.37;;;19.10;21.60;;;;;;5120904;28;20422;-78
2022/04/12 09:41:47;;;;;;;19.33;10.10;;;19.20;21.60;;;;;;5120425;28;20244;-79
2022/04/12 09:44:17;;;;;;;17.90;9.40;;;19.70;21.00;;;;;;5121131;28;20985;-77
2022/04/12 09:46:43;;;;;;;18.73;9.17;;;20.30;20.60;;;;;;5121951;28;20414;-79
2022/04/12 09:49:09;;;;;;;19.07;8.63;;;20.90;20.60;;;;;;5124015;28;20427;-80
2022/04/12 09:51:36;;;;;;;30.17;9.00;;;21.30;20.20;;;;;;5119825;28;20231;-79
2022/04/12 09:54:03;;;;;;;32.43;8.60;;;20.90;20.00;;;;;;5120562;28;20416;-79
2022/04/12 09:56:30;;;;;;;19.37;8.50;;;21.00;20.70;;;;;;5120044;28;20418;-81
2022/04/12 09:58:58;;;;;;;18.77;8.07;;;20.50;20.60;;;;;;5119748;28;20424;-79
2022/04/12 10:01:24;;;;;;;21.67;7.83;;;21.00;21.20;;;;;;5098192;28;20448;-78
2022/04/12 10:03:53;;;;;;;18.90;7.43;;;21.10;20.60;;;;;;5098800;28;21014;-79
2022/04/12 10:06:23;;;;;;;25.43;7.80;;;18.80;18.30;;;;;;5098316;28;20501;-80
2022/04/12 10:08:59;;;;;;;14.10;7.63;;;20.10;20.70;;;;;;5118897;28;20419;-78
2022/04/12 10:11:26;;;;;;;19.97;7.40;;;19.40;21.20;;;;;;5119534;28;20465;-78
2022/04/12 10:13:52;;;;;;;11.37;6.17;;;20.30;22.10;;;;;;5119825;28;20422;-79
2022/04/12 10:16:20;;;;;;;17.27;6.40;;;21.60;20.30;;;;;;5120284;28;20419;-78
2022/04/12 10:18:46;;;;;;;13.07;6.50;;;22.30;18.70;;;;;;5119912;28;20433;-79
2022/04/12 10:21:12;;;;;;;18.43;5.73;;;22.80;17.40;;;;;;5120958;28;20440;-78
2022/04/12 10:23:44;;;;;;;9.50;5.50;;;22.50;17.20;;;;;;5120504;28;20446;-79
2022/04/12 10:26:11;;;;;;;11.13;6.20;;;22.50;17.40;;;;;;5121093;28;20432;-79
2022/04/12 10:28:38;;;;;;;6.87;5.10;;;21.50;18.50;;;;;;5102679;28;20431;-79
2022/04/12 10:31:15;;;;;;;12.40;5.40;;;22.20;20.30;;;;;;5119746;28;20461;-80
2022/04/12 10:34:04;;;;;;;9.60;5.50;;;23.40;17.50;;;;;;5120089;28;20477;-80
2022/04/12 10:37:00;;;;;;;10.60;5.00;;;24.00;18.00;;;;;;5119524;28;20421;-80
2022/04/12 10:39:57;;;;;;;6.37;4.47;;;24.70;15.00;;;;;;5100540;28;20795;-81
2022/04/12 10:42:29;;;;;;;6.00;4.20;;;25.10;14.70;;;;;;5119169;28;20439;-80
2022/04/12 10:44:56;;;;;;;6.80;4.63;;;25.50;15.60;;;;;;5120286;28;20468;-79
2022/04/12 10:47:31;;;;;;;12.83;4.10;;;25.50;14.90;;;;;;5119530;28;20411;-80
2022/04/12 10:50:27;;;;;;;7.93;4.53;;;25.40;16.10;;;;;;5111928;28;20472;-80
2022/04/12 10:52:53;;;;;;;11.63;4.40;;;25.60;14.40;;;;;;5015703;28;20538;-80
2022/04/12 10:55:25;;;;;;;17.57;4.13;;;25.20;15.70;;;;;;5031581;28;20961;-79
2022/04/12 10:57:52;;;;;;;4.90;2.70;;;25.70;12.60;;;;;;5036028;28;20557;-78
2022/04/12 11:00:22;;;;;;;6.20;2.63;;;25.60;11.10;;;;;;5035221;28;20466;-81
2022/04/12 11:02:57;;;;;;;16.27;2.70;;;25.90;11.20;;;;;;5017950;28;20479;-79
2022/04/12 11:05:39;;;;;;;3.20;2.40;;;26.70;10.00;;;;;;5034637;28;20418;-81
2022/04/12 11:08:34;;;;;;;5.40;2.40;;;27.90;7.60;;;;;;5034529;28;20469;-81
2022/04/12 11:11:00;;;;;;;3.60;2.37;;;28.30;9.80;;;;;;5033995;28;20498;-80
2022/04/12 11:13:29;;;;;;;5.00;2.40;;;28.40;6.80;;;;;;5023640;28;20416;-79
2022/04/12 11:15:57;;;;;;;5.10;2.30;;;28.10;9.00;;;;;;5028614;28;20185;-80
2022/04/12 11:18:22;;;;;;;5.10;2.50;;;27.60;8.60;;;;;;5027812;28;20771;-80
2022/04/12 11:21:02;;;;;;;4.83;2.67;;;27.20;8.80;;;;;;5036003;28;20434;-80
2022/04/12 11:23:47;;;;;;;8.33;2.33;;;27.90;7.80;;;;;;5037844;28;20188;-80
2022/04/12 11:26:46;;;;;;;4.50;2.57;;;28.20;8.40;;;;;;5044872;28;20406;-80
2022/04/12 11:29:19;;;;;;;4.73;2.30;;;29.30;5.70;;;;;;5083998;28;20454;-79
2022/04/12 11:31:54;;;;;;;6.20;2.20;;;28.80;6.90;;;;;;5117205;28;20455;-81
2022/04/12 11:34:21;;;;;;;3.40;2.40;;;29.00;6.40;;;;;;5106204;28;20944;-82
2022/04/12 11:36:50;;;;;;;4.10;2.30;;;29.40;4.90;;;;;;5129262;28;20419;-82
2022/04/12 11:39:20;;;;;;;3.43;2.40;;;30.20;4.60;;;;;;5119888;28;20418;-79
2022/04/12 11:41:46;;;;;;;4.10;2.20;;;29.90;5.80;;;;;;5119278;28;21036;-82
2022/04/12 11:44:12;;;;;;;4.53;2.30;;;29.80;4.90;;;;;;5119630;28;20419;-79
2022/04/12 11:46:38;;;;;;;3.17;2.10;;;29.90;8.40;;;;;;5119043;28;20434;-81
2022/04/12 11:49:10;;;;;;;8.97;2.47;;;29.20;7.50;;;;;;5119204;28;20177;-82
2022/04/12 11:51:41;;;;;;;6.67;2.47;;;29.50;5.50;;;;;;5119588;28;20232;-81
2022/04/12 11:54:24;;;;;;;3.20;2.00;;;30.50;5.60;;;;;;5118079;28;20426;-80
2022/04/12 11:57:14;;;;;;;8.30;2.43;;;30.30;6.20;;;;;;5118953;28;20484;-80
2022/04/12 11:59:53;;;;;;;3.27;2.37;;;29.20;7.70;;;;;;5105417;28;20424;-81
2022/04/12 12:02:23;;;;;;;3.77;2.50;;;28.50;7.40;;;;;;5108071;28;20435;-81
2022/04/12 12:04:56;;;;;;;6.10;2.37;;;28.80;9.20;;;;;;5117956;28;20407;-81
2022/04/12 12:07:22;;;;;;;16.00;2.70;;;29.80;8.40;;;;;;5116568;28;20404;-81
2022/04/12 12:10:04;;;;;;;3.23;2.27;;;29.30;7.80;;;;;;5116067;28;20430;-82
2022/04/12 12:12:39;;;;;;;5.60;2.40;;;29.60;7.90;;;;;;5114445;28;20443;-81
2022/04/12 12:15:18;;;;;;;4.23;2.43;;;29.40;8.10;;;;;;5116920;28;20407;-83
2022/04/12 12:17:45;;;;;;;6.30;2.30;;;29.90;5.80;;;;;;5096329;28;20417;-79
2022/04/12 12:20:12;;;;;;;3.23;2.20;;;30.00;6.80;;;;;;5115371;28;20430;-80
2022/04/12 12:22:40;;;;;;;4.57;2.53;;;29.80;7.30;;;;;;5117620;28;20502;-79
2022/04/12 12:25:07;;;;;;;7.93;2.60;;;30.10;8.00;;;;;;5117158;28;20992;-81
2022/04/12 12:27:38;;;;;;;5.13;2.50;;;30.80;5.20;;;;;;5115425;28;20415;-83
2022/04/12 12:30:09;;;;;;;7.80;2.70;;;30.60;5.40;;;;;;5116845;28;20451;-83
2022/04/12 12:32:39;;;;;;;5.93;2.30;;;30.80;4.60;;;;;;5095237;28;20462;-81
2022/04/12 12:35:08;;;;;;;3.30;2.37;;;31.20;6.00;;;;;;5114096;28;20419;-80
2022/04/12 12:37:34;;;;;;;5.20;2.27;;;31.10;4.70;;;;;;5115668;28;20415;-80
2022/04/12 12:40:01;;;;;;;4.70;2.40;;;31.60;5.90;;;;;;5114867;28;20896;-79
2022/04/12 12:42:37;;;;;;;3.43;2.20;;;30.40;6.50;;;;;;5110666;28;20435;-82